createdAt,value
2019-06-08T00:05:16.864Z,3.00
2019-06-08T00:07:45.747Z,3.40
2019-06-08T00:10:14.672Z,3.40
2019-06-08T00:12:43.632Z,2.80
2019-06-08T00:15:12.431Z,3.05
2019-06-08T00:17:41.129Z,3.00
2019-06-08T00:20:09.911Z,3.10
2019-06-08T00:22:38.683Z,2.98
2019-06-08T00:25:07.346Z,3.22
2019-06-08T00:27:36.161Z,2.83
2019-06-08T00:30:06.409Z,3.22
2019-06-08T00:32:35.099Z,3.40
2019-06-08T00:35:04.815Z,2.98
2019-06-08T00:37:33.694Z,3.00
2019-06-08T00:40:02.423Z,3.10
2019-06-08T00:42:31.165Z,3.02
2019-06-08T00:44:59.934Z,2.95
2019-06-08T00:47:46.333Z,3.22
2019-06-08T00:49:59.040Z,3.08
2019-06-08T00:52:27.723Z,3.12
2019-06-08T00:54:56.514Z,3.12
2019-06-08T00:57:26.052Z,3.20
2019-06-08T00:59:54.929Z,3.25
2019-06-08T01:02:24.542Z,3.50
2019-06-08T01:04:53.483Z,2.80
2019-06-08T01:07:22.291Z,3.40
2019-06-08T01:09:51.014Z,3.27
2019-06-08T01:12:20.522Z,3.25
2019-06-08T01:14:49.313Z,2.60
2019-06-08T01:17:19.314Z,3.00
2019-06-08T01:19:48.345Z,2.85
2019-06-08T01:22:16.930Z,2.95
2019-06-08T01:24:45.989Z,2.87
2019-06-08T01:27:14.558Z,2.72
2019-06-08T01:29:43.333Z,2.77
2019-06-08T01:32:12.058Z,3.00
2019-06-08T01:34:40.835Z,3.40
2019-06-08T01:37:09.677Z,2.50
2019-06-08T01:39:38.359Z,2.77
2019-06-08T01:42:07.067Z,3.02
2019-06-08T01:44:35.749Z,2.80
2019-06-08T01:47:06.400Z,3.00
2019-06-08T01:49:35.130Z,3.10
2019-06-08T01:52:03.874Z,2.70
2019-06-08T01:54:33.346Z,3.37
2019-06-08T01:57:02.094Z,3.12
2019-06-08T01:59:34.154Z,2.72
2019-06-08T02:02:01.149Z,2.95
2019-06-08T02:04:30.044Z,3.10
2019-06-08T02:06:59.067Z,2.80
2019-06-08T02:09:28.667Z,2.80
2019-06-08T02:11:57.459Z,2.80
2019-06-08T02:14:27.092Z,3.15
2019-06-08T02:16:55.963Z,2.85
2019-06-08T02:19:24.720Z,3.05
2019-06-08T02:21:53.641Z,3.08
2019-06-08T02:24:22.278Z,3.10
2019-06-08T02:26:51.088Z,3.17
2019-06-08T02:29:19.884Z,2.98
2019-06-08T02:31:48.667Z,3.15
2019-06-08T02:34:17.468Z,3.30
2019-06-08T02:36:46.376Z,3.37
2019-06-08T02:39:15.143Z,3.40
2019-06-08T02:41:43.923Z,3.00
2019-06-08T02:44:12.715Z,3.12
2019-06-08T02:46:41.497Z,3.40
2019-06-08T02:49:10.212Z,3.40
2019-06-08T02:51:38.993Z,3.00
2019-06-08T02:54:07.887Z,3.08
2019-06-08T02:56:38.598Z,3.27
2019-06-08T02:59:07.028Z,3.67
2019-06-08T03:01:36.602Z,3.47
2019-06-08T03:04:06.324Z,3.80
2019-06-08T03:06:36.599Z,4.47
2019-06-08T03:09:06.277Z,3.90
2019-06-08T03:11:36.893Z,3.92
2019-06-08T03:14:05.901Z,3.47
2019-06-08T03:16:35.914Z,3.75
2019-06-08T03:19:20.712Z,3.40
2019-06-08T03:21:36.328Z,3.50
2019-06-08T03:24:05.832Z,3.00
2019-06-08T03:26:36.487Z,3.60
2019-06-08T03:29:05.068Z,3.80
2019-06-08T03:31:36.175Z,3.80
2019-06-08T03:34:04.209Z,3.52
2019-06-08T03:36:35.935Z,3.65
2019-06-08T03:39:03.550Z,4.42
2019-06-08T03:41:34.131Z,4.70
2019-06-08T03:44:02.560Z,4.55
2019-06-08T03:46:31.284Z,4.83
2019-06-08T03:48:59.975Z,4.53
2019-06-08T03:51:28.550Z,4.10
2019-06-08T03:53:57.231Z,4.17
2019-06-08T03:56:25.992Z,4.30
2019-06-08T03:58:54.672Z,4.80
2019-06-08T04:01:23.460Z,4.72
2019-06-08T04:03:52.155Z,5.75
2019-06-08T04:06:21.070Z,4.92
2019-06-08T04:08:49.974Z,4.47
2019-06-08T04:11:19.106Z,4.30
2019-06-08T04:13:47.856Z,4.47
2019-06-08T04:16:16.600Z,5.60
2019-06-08T04:18:46.778Z,6.28
2019-06-08T04:21:15.832Z,5.30
2019-06-08T04:23:46.850Z,5.50
2019-06-08T04:26:15.032Z,5.87
2019-06-08T04:28:44.779Z,5.72
2019-06-08T04:31:14.146Z,7.12
2019-06-08T04:33:44.290Z,6.37
2019-06-08T04:36:13.169Z,6.05
2019-06-08T04:38:43.314Z,5.03
2019-06-08T04:41:12.389Z,5.20
2019-06-08T04:43:42.796Z,5.35
2019-06-08T04:46:12.017Z,5.00
2019-06-08T04:48:42.815Z,5.17
2019-06-08T04:51:11.199Z,4.90
2019-06-08T04:53:40.938Z,4.45
2019-06-08T04:56:10.422Z,4.03
2019-06-08T04:58:39.890Z,4.25
2019-06-08T05:01:09.534Z,4.17
2019-06-08T05:03:39.251Z,3.62
2019-06-08T05:06:08.791Z,4.15
2019-06-08T05:08:38.941Z,3.47
2019-06-08T05:11:07.855Z,3.62
2019-06-08T05:13:36.703Z,3.05
2019-06-08T05:16:05.436Z,2.85
2019-06-08T05:18:34.222Z,2.62
2019-06-08T05:21:03.019Z,2.65
2019-06-08T05:23:31.820Z,2.47
2019-06-08T05:26:00.447Z,2.85
2019-06-08T05:28:29.163Z,2.65
2019-06-08T05:30:57.812Z,2.33
2019-06-08T05:33:26.538Z,2.33
2019-06-08T05:35:55.221Z,2.60
2019-06-08T05:38:26.602Z,2.12
2019-06-08T05:40:55.366Z,2.40
2019-06-08T05:43:24.071Z,2.30
2019-06-08T05:45:52.691Z,2.05
2019-06-08T05:48:21.613Z,2.37
2019-06-08T05:51:00.576Z,2.60
2019-06-08T05:53:20.867Z,2.65
2019-06-08T05:55:50.198Z,2.60
2019-06-08T05:58:19.130Z,2.80
2019-06-08T06:00:48.369Z,2.92
2019-06-08T06:03:17.320Z,2.60
2019-06-08T06:05:46.518Z,2.72
2019-06-08T06:08:18.805Z,2.87
2019-06-08T06:10:46.889Z,2.95
2019-06-08T06:13:15.755Z,2.17
2019-06-08T06:15:45.279Z,2.00
2019-06-08T06:18:14.142Z,1.92
2019-06-08T06:20:43.330Z,2.17
2019-06-08T06:23:14.014Z,2.35
2019-06-08T06:25:49.627Z,2.47
2019-06-08T06:28:18.512Z,2.50
2019-06-08T06:30:48.481Z,2.47
2019-06-08T06:33:19.289Z,2.30
2019-06-08T06:35:48.051Z,2.30
2019-06-08T06:38:16.847Z,2.00
2019-06-08T06:40:45.910Z,2.35
2019-06-08T06:43:15.055Z,2.25
2019-06-08T06:45:44.243Z,1.95
2019-06-08T06:48:13.214Z,2.00
2019-06-08T06:50:42.275Z,1.80
2019-06-08T06:53:11.052Z,1.82
2019-06-08T06:55:39.750Z,2.00
2019-06-08T06:58:08.382Z,2.00
2019-06-08T07:00:37.167Z,2.02
2019-06-08T07:03:05.985Z,1.90
2019-06-08T07:05:34.859Z,1.92
2019-06-08T07:08:03.617Z,2.10
2019-06-08T07:10:32.407Z,2.25
2019-06-08T07:13:01.043Z,2.50
2019-06-08T07:15:29.997Z,2.83
2019-06-08T07:17:58.906Z,3.30
2019-06-08T07:20:27.659Z,3.47
2019-06-08T07:22:56.456Z,3.95
2019-06-08T07:25:25.326Z,6.37
2019-06-08T07:27:55.086Z,5.42
2019-06-08T07:30:24.178Z,4.67
2019-06-08T07:32:53.056Z,3.90
2019-06-08T07:35:21.958Z,3.87
2019-06-08T07:37:51.886Z,3.00
2019-06-08T07:40:20.805Z,3.50
2019-06-08T07:42:51.026Z,3.85
2019-06-08T07:45:19.948Z,3.92
2019-06-08T07:47:49.847Z,3.45
2019-06-08T07:50:18.859Z,4.40
2019-06-08T07:52:47.951Z,3.55
2019-06-08T07:55:18.066Z,3.55
2019-06-08T07:57:48.602Z,4.10
2019-06-08T08:00:17.283Z,4.72
2019-06-08T08:02:46.008Z,5.95
2019-06-08T08:05:14.705Z,5.62
2019-06-08T08:07:43.447Z,5.12
2019-06-08T08:10:12.375Z,4.55
2019-06-08T08:12:41.166Z,4.70
2019-06-08T08:15:09.938Z,4.05
2019-06-08T08:17:38.663Z,4.35
2019-06-08T08:20:07.924Z,4.55
2019-06-08T08:22:38.456Z,4.40
2019-06-08T08:25:08.283Z,4.45
2019-06-08T08:27:37.695Z,4.00
2019-06-08T08:30:08.352Z,4.33
2019-06-08T08:32:41.590Z,3.77
2019-06-08T08:35:10.480Z,3.87
2019-06-08T08:37:39.303Z,3.47
2019-06-08T08:40:08.082Z,3.65
2019-06-08T08:42:38.586Z,3.75
2019-06-08T08:45:08.673Z,3.98
2019-06-08T08:47:38.692Z,3.47
2019-06-08T08:50:07.793Z,3.42
2019-06-08T08:52:40.436Z,3.62
2019-06-08T08:55:08.268Z,3.80
2019-06-08T08:57:41.171Z,3.47
2019-06-08T09:00:08.674Z,3.75
2019-06-08T09:02:37.577Z,3.60
2019-06-08T09:05:08.682Z,3.47
2019-06-08T09:07:38.483Z,3.67
2019-06-08T09:10:08.559Z,3.72
2019-06-08T09:12:37.766Z,3.52
2019-06-08T09:15:08.645Z,3.92
2019-06-08T09:17:38.849Z,3.30
2019-06-08T09:20:13.046Z,3.70
2019-06-08T09:22:52.349Z,3.47
2019-06-08T09:25:08.982Z,3.22
2019-06-08T09:27:38.305Z,3.05
2019-06-08T09:30:08.307Z,3.12
2019-06-08T09:32:38.200Z,2.70
2019-06-08T09:35:09.422Z,3.40
2019-06-08T09:37:37.897Z,3.00
2019-06-08T09:40:06.920Z,3.25
2019-06-08T09:42:35.627Z,3.30
2019-06-08T09:45:09.071Z,3.05
2019-06-08T09:47:38.102Z,3.45
2019-06-08T09:50:09.190Z,2.90
2019-06-08T09:52:40.963Z,2.65
2019-06-08T09:55:09.185Z,2.70
2019-06-08T09:57:38.556Z,2.70
2019-06-08T10:00:15.372Z,2.85
2019-06-08T10:05:07.164Z,2.87
2019-06-08T10:07:38.537Z,3.22
2019-06-08T10:10:09.429Z,3.30
2019-06-08T10:12:37.803Z,3.30
2019-06-08T10:15:08.156Z,3.72
2019-06-08T10:17:39.638Z,3.25
2019-06-08T10:20:09.989Z,3.20
2019-06-08T10:22:38.819Z,3.10
2019-06-08T10:25:11.378Z,2.90
2019-06-08T10:27:40.637Z,2.95
2019-06-08T10:30:10.005Z,3.10
2019-06-08T10:32:39.203Z,3.05
2019-06-08T10:35:10.388Z,3.83
2019-06-08T10:37:38.611Z,3.45
2019-06-08T10:40:08.838Z,3.50
2019-06-08T10:42:39.838Z,4.85
2019-06-08T10:45:12.159Z,4.10
2019-06-08T10:47:38.408Z,3.90
2019-06-08T10:50:14.571Z,3.30
2019-06-08T10:52:39.143Z,2.83
2019-06-08T10:55:10.384Z,2.50
2019-06-08T10:57:38.475Z,2.50
2019-06-08T11:00:20.094Z,2.47
2019-06-08T11:02:43.129Z,2.52
2019-06-08T11:05:13.935Z,2.08
2019-06-08T11:07:42.527Z,2.50
2019-06-08T11:10:12.553Z,2.95
2019-06-08T11:12:41.659Z,2.33
2019-06-08T11:15:11.873Z,2.58
2019-06-08T11:17:40.753Z,3.27
2019-06-08T11:20:13.106Z,3.62
2019-06-08T11:22:41.635Z,2.90
2019-06-08T11:25:16.259Z,3.05
2019-06-08T11:27:40.790Z,2.87
2019-06-08T11:30:19.722Z,2.40
2019-06-08T11:32:40.129Z,2.05
2019-06-08T11:35:11.886Z,1.60
2019-06-08T11:37:40.940Z,2.12
2019-06-08T11:40:12.346Z,2.20
2019-06-08T11:42:40.791Z,2.05
2019-06-08T11:45:12.631Z,2.40
2019-06-08T11:47:40.413Z,2.30
2019-06-08T11:50:12.949Z,2.42
2019-06-08T11:52:39.753Z,2.42
2019-06-08T11:55:11.191Z,2.25
2019-06-08T11:57:40.493Z,2.47
2019-06-08T12:00:23.504Z,1.98
2019-06-08T12:02:41.299Z,2.45
2019-06-08T12:05:12.633Z,2.17
2019-06-08T12:07:40.722Z,2.20
2019-06-08T12:10:11.355Z,2.08
2019-06-08T12:12:39.859Z,2.10
2019-06-08T12:15:11.644Z,2.20
2019-06-08T12:17:43.610Z,2.40
2019-06-08T12:20:19.743Z,2.40
2019-06-08T12:22:47.833Z,2.50
2019-06-08T12:25:19.289Z,2.37
2019-06-08T12:27:52.720Z,2.30
2019-06-08T12:30:34.480Z,2.85
2019-06-08T12:33:03.368Z,2.83
2019-06-08T12:35:35.933Z,2.90
2019-06-08T12:38:09.627Z,3.30
2019-06-08T12:40:41.070Z,2.70
2019-06-08T12:43:12.843Z,2.87
2019-06-08T12:45:43.595Z,2.37
2019-06-08T12:48:16.228Z,2.12
2019-06-08T12:50:42.775Z,2.20
2019-06-08T12:53:15.920Z,2.47
2019-06-08T12:55:42.140Z,2.25
2019-06-08T12:58:11.686Z,2.60
2019-06-08T13:00:42.131Z,2.10
2019-06-08T13:03:11.671Z,2.58
2019-06-08T13:05:41.443Z,2.40
2019-06-08T13:08:11.500Z,2.80
2019-06-08T13:10:40.689Z,2.90
2019-06-08T13:13:09.956Z,2.60
2019-06-08T13:15:39.879Z,2.60
2019-06-08T13:18:10.198Z,2.52
2019-06-08T13:20:39.033Z,2.75
2019-06-08T13:23:08.643Z,2.17
2019-06-08T13:25:43.468Z,2.33
2019-06-08T13:28:12.925Z,2.25
2019-06-08T13:30:39.292Z,2.33
2019-06-08T13:33:08.276Z,2.47
2019-06-08T13:35:39.494Z,2.15
2019-06-08T13:38:08.758Z,2.27
2019-06-08T13:40:40.215Z,2.15
2019-06-08T13:43:08.237Z,2.02
2019-06-08T13:45:39.412Z,1.98
2019-06-08T13:48:08.969Z,2.52
2019-06-08T13:50:38.059Z,2.08
2019-06-08T13:53:10.646Z,2.40
2019-06-08T13:55:51.765Z,2.40
2019-06-08T13:58:07.598Z,2.40
2019-06-08T14:00:38.537Z,2.00
2019-06-08T14:03:08.452Z,1.90
2019-06-08T14:05:38.828Z,2.50
2019-06-08T14:08:10.542Z,2.60
2019-06-08T14:10:39.492Z,2.60
2019-06-08T14:13:08.252Z,2.65
2019-06-08T14:15:37.930Z,2.70
2019-06-08T14:18:08.919Z,2.87
2019-06-08T14:20:38.674Z,2.85
2019-06-08T14:23:09.120Z,2.80
2019-06-08T14:25:47.941Z,2.27
2019-06-08T14:28:08.554Z,2.62
2019-06-08T14:30:37.837Z,7.78
2019-06-08T14:33:08.258Z,8.00
2019-06-08T14:35:37.237Z,5.35
2019-06-08T14:38:06.040Z,6.25
2019-06-08T14:40:34.757Z,4.60
2019-06-08T14:43:10.421Z,3.85
2019-06-08T14:45:37.795Z,3.55
2019-06-08T14:48:06.738Z,4.45
2019-06-08T14:50:40.423Z,3.67
2019-06-08T14:53:08.291Z,4.78
2019-06-08T14:55:38.490Z,7.60
2019-06-08T14:58:08.348Z,7.42
2019-06-08T15:00:38.308Z,8.28
2019-06-08T15:03:07.821Z,7.20
2019-06-08T15:05:36.733Z,5.70
2019-06-08T15:08:08.142Z,4.60
2019-06-08T15:10:38.297Z,3.80
2019-06-08T15:13:07.725Z,3.17
2019-06-08T15:15:38.074Z,2.27
2019-06-08T15:18:10.525Z,2.80
2019-06-08T15:20:38.040Z,4.28
2019-06-08T15:23:08.264Z,4.83
2019-06-08T15:25:38.693Z,4.58
2019-06-08T15:28:08.261Z,4.30
2019-06-08T15:30:38.038Z,4.53
2019-06-08T15:33:07.008Z,4.87
2019-06-08T15:35:37.682Z,4.30
2019-06-08T15:38:08.178Z,3.55
2019-06-08T15:40:37.892Z,2.83
2019-06-08T15:43:08.688Z,2.80
2019-06-08T15:45:37.509Z,2.70
2019-06-08T15:48:07.984Z,2.70
2019-06-08T15:50:37.891Z,2.70
2019-06-08T15:53:08.367Z,2.70
2019-06-08T15:55:37.971Z,2.90
2019-06-08T15:58:08.903Z,3.10
2019-06-08T16:00:40.451Z,3.17
2019-06-08T16:03:09.390Z,2.90
2019-06-08T16:05:38.160Z,3.15
2019-06-08T16:08:06.791Z,2.92
2019-06-08T16:10:35.458Z,2.72
2019-06-08T16:13:04.235Z,2.22
2019-06-08T16:15:33.437Z,2.90
2019-06-08T16:18:02.321Z,2.27
2019-06-08T16:20:31.581Z,2.70
2019-06-08T16:23:00.501Z,2.60
2019-06-08T16:25:29.620Z,3.15
2019-06-08T16:28:00.124Z,2.95
2019-06-08T16:30:29.199Z,2.75
2019-06-08T16:32:59.865Z,2.83
2019-06-08T16:35:29.611Z,2.40
2019-06-08T16:37:58.764Z,2.87
2019-06-08T16:40:27.608Z,3.20
2019-06-08T16:42:56.500Z,3.27
2019-06-08T16:45:25.774Z,3.20
2019-06-08T16:47:55.743Z,3.20
2019-06-08T16:50:25.172Z,3.15
2019-06-08T16:52:54.030Z,3.27
2019-06-08T16:55:22.952Z,2.98
2019-06-08T16:57:51.683Z,3.00
2019-06-08T17:00:39.015Z,3.50
2019-06-08T17:02:50.925Z,2.90
2019-06-08T17:05:19.842Z,3.40
2019-06-08T17:07:48.627Z,3.22
2019-06-08T17:10:17.323Z,3.37
2019-06-08T17:12:46.085Z,3.45
2019-06-08T17:15:14.855Z,3.22
2019-06-08T17:17:43.573Z,3.90
2019-06-08T17:20:12.359Z,3.65
2019-06-08T17:22:41.258Z,3.80
2019-06-08T17:25:10.892Z,3.80
2019-06-08T17:27:40.806Z,3.55
2019-06-08T17:30:09.700Z,3.35
2019-06-08T17:32:38.665Z,3.42
2019-06-08T17:35:09.010Z,4.12
2019-06-08T17:37:38.151Z,4.47
2019-06-08T17:40:06.944Z,7.50
2019-06-08T17:42:35.625Z,9.58
2019-06-08T17:45:06.400Z,7.95
2019-06-08T17:47:36.286Z,6.20
2019-06-08T17:50:08.135Z,5.00
2019-06-08T17:55:06.368Z,4.25
2019-06-08T17:57:44.830Z,4.28
2019-06-08T18:00:09.584Z,4.15
2019-06-08T18:02:42.009Z,4.28
2019-06-08T18:05:09.462Z,4.70
2019-06-08T18:07:42.282Z,4.75
2019-06-08T18:10:11.064Z,4.87
2019-06-08T18:12:43.053Z,5.00
2019-06-08T18:15:10.475Z,6.72
2019-06-08T18:17:42.009Z,6.12
2019-06-08T18:20:12.078Z,6.95
2019-06-08T18:22:42.829Z,6.30
2019-06-08T18:25:11.095Z,6.28
2019-06-08T18:27:42.385Z,6.20
2019-06-08T18:30:11.718Z,5.37
2019-06-08T18:32:42.098Z,5.33
2019-06-08T18:35:11.306Z,5.75
2019-06-08T18:37:41.314Z,5.10
2019-06-08T18:40:10.615Z,5.25
2019-06-08T18:42:41.117Z,4.78
2019-06-08T18:45:09.634Z,4.78
2019-06-08T18:47:39.341Z,5.30
2019-06-08T18:50:09.161Z,4.83
2019-06-08T18:52:40.558Z,5.20
2019-06-08T18:55:09.889Z,4.67
2019-06-08T18:57:39.861Z,5.03
2019-06-08T19:00:11.625Z,4.95
2019-06-08T19:02:43.057Z,5.35
2019-06-08T19:05:10.813Z,4.92
2019-06-08T19:07:39.562Z,5.00
2019-06-08T19:10:08.364Z,4.65
2019-06-08T19:12:39.653Z,5.40
2019-06-08T19:15:08.321Z,5.50
2019-06-08T19:17:43.906Z,5.30
2019-06-08T19:20:08.253Z,5.08
2019-06-08T19:22:42.847Z,5.10
2019-06-08T19:25:07.839Z,4.65
2019-06-08T19:27:40.627Z,4.65
2019-06-08T19:30:07.188Z,5.20
2019-06-08T19:32:38.898Z,4.92
2019-06-08T19:35:07.343Z,4.62
2019-06-08T19:37:36.091Z,5.17
2019-06-08T19:40:07.445Z,4.97
2019-06-08T19:42:45.601Z,5.28
2019-06-08T19:45:08.951Z,5.42
2019-06-08T19:47:38.438Z,5.80
2019-06-08T19:50:08.619Z,9.00
2019-06-08T19:52:41.066Z,9.53
2019-06-08T19:55:08.092Z,9.40
2019-06-08T19:57:37.069Z,9.08
2019-06-08T20:00:08.715Z,8.60
2019-06-08T20:05:07.661Z,6.83
2019-06-08T20:07:37.851Z,6.47
2019-06-08T20:10:07.794Z,5.58
2019-06-08T20:12:37.282Z,6.20
2019-06-08T20:15:09.333Z,5.97
2019-06-08T20:17:37.887Z,6.00
2019-06-08T20:20:07.731Z,5.95
2019-06-08T20:22:37.863Z,7.73
2019-06-08T20:25:10.322Z,7.22
2019-06-08T20:27:37.374Z,7.35
2019-06-08T20:30:12.186Z,9.35
2019-06-08T20:32:39.319Z,7.92
2019-06-08T20:35:08.202Z,6.83
2019-06-08T20:37:37.727Z,6.05
2019-06-08T20:40:12.807Z,6.37
2019-06-08T20:42:37.800Z,5.62
2019-06-08T20:45:08.289Z,5.28
2019-06-08T20:47:39.121Z,5.17
2019-06-08T20:50:07.696Z,4.97
2019-06-08T20:52:37.731Z,4.85
2019-06-08T20:55:07.965Z,4.30
2019-06-08T20:57:36.824Z,3.98
2019-06-08T21:00:09.248Z,4.33
2019-06-08T21:02:37.779Z,4.10
2019-06-08T21:05:07.848Z,3.52
2019-06-08T21:07:36.824Z,3.70
2019-06-08T21:10:08.314Z,3.67
2019-06-08T21:12:37.920Z,3.30
2019-06-08T21:15:07.355Z,3.50
2019-06-08T21:17:38.220Z,3.20
2019-06-08T21:20:08.581Z,3.60
2019-06-08T21:22:37.026Z,3.50
2019-06-08T21:25:08.644Z,3.33
2019-06-08T21:27:38.492Z,3.20
2019-06-08T21:30:20.345Z,3.17
2019-06-08T21:32:39.547Z,3.05
2019-06-08T21:35:08.319Z,3.60
2019-06-08T21:37:37.680Z,3.17
2019-06-08T21:40:08.455Z,3.10
2019-06-08T21:42:37.641Z,3.05
2019-06-08T21:45:09.664Z,3.25
2019-06-08T21:50:08.136Z,3.12
2019-06-08T21:52:36.921Z,3.40
2019-06-08T21:55:07.311Z,3.50
2019-06-08T21:57:37.126Z,3.20
2019-06-08T22:00:26.835Z,3.55
2019-06-08T22:05:08.231Z,4.40
2019-06-08T22:07:37.719Z,4.37
2019-06-08T22:10:09.669Z,4.30
2019-06-08T22:12:40.354Z,4.58
2019-06-08T22:15:08.814Z,4.53
2019-06-08T22:17:38.309Z,4.30
2019-06-08T22:20:08.140Z,3.87
2019-06-08T22:22:37.843Z,4.05
2019-06-08T22:25:08.187Z,4.28
2019-06-08T22:27:38.198Z,3.80
2019-06-08T22:30:11.589Z,3.95
2019-06-08T22:32:38.764Z,4.10
2019-06-08T22:35:08.043Z,3.25
2019-06-08T22:37:37.960Z,4.65
2019-06-08T22:40:08.169Z,4.08
2019-06-08T22:42:37.563Z,4.67
2019-06-08T22:45:08.243Z,4.35
2019-06-08T22:47:38.839Z,4.80
2019-06-08T22:50:08.021Z,4.65
2019-06-08T22:52:37.581Z,4.83
2019-06-08T22:55:10.218Z,4.70
2019-06-08T22:57:37.724Z,3.90
2019-06-08T23:00:14.471Z,4.33
2019-06-08T23:02:38.418Z,4.65
2019-06-08T23:05:09.054Z,4.40
2019-06-08T23:07:37.993Z,4.53
2019-06-08T23:10:08.883Z,4.00
2019-06-08T23:12:38.459Z,4.30
2019-06-08T23:15:08.980Z,4.00
2019-06-08T23:17:38.584Z,4.20
2019-06-08T23:20:08.623Z,4.03
2019-06-08T23:22:38.538Z,3.85
2019-06-08T23:25:09.827Z,4.17
2019-06-08T23:27:38.655Z,4.20
2019-06-08T23:30:10.103Z,3.60
2019-06-08T23:32:39.103Z,4.25
2019-06-08T23:35:09.568Z,3.85
2019-06-08T23:37:38.526Z,4.12
2019-06-08T23:40:07.772Z,4.10
2019-06-08T23:42:38.426Z,4.10
2019-06-08T23:45:10.492Z,4.65
2019-06-08T23:47:38.990Z,4.40
2019-06-08T23:50:09.976Z,3.90
2019-06-08T23:52:38.390Z,3.85
2019-06-08T23:55:10.490Z,4.30
2019-06-08T23:57:38.201Z,4.15
